Tyaskin, Maryland
Current Conditions -  °F | °C
As of 5:49 AM on Wednesday 22 Oct 2014 (Local Time) from KCGE Reporting Station
Overcast Overcast  
Wind Chill: 13°   Ceiling: 2600
Heat Index: 13°   Visibility: 10mi
Dew Point: 11°   Wind: 7mph
Humidity: 88%   Direction: 340°NNW
Pressure: 29.82"   Gusts: NA
Location:  38.32°N, 75.87°W
Report Text: KCGE 220949Z AUTO 34006KT 10SM SCT008 OVC026 13/11 A2982 RMK AO1
Loading
Personal Weather Stations






























Interactive Weather Map
Tropical Storm Tracking
New forecast layout! Learn more

10-Day Weather Forecast

Advertisements
Track Severe Weather on mobile